Time;durP1;ratioP1;P1;durP2;ratioP2;P2;SDS_P1;SDS_P2;PMS_P1;PMS_P2;Temp;Humidity;BMP_temperature;BMP_pressure;BME280_temperature;BME280_humidity;BME280_pressure;Samples;Min_cycle;Max_cycle;Signal;HPM_P1;HPM_P2
2021/08/05 00:01:36;;;;;;;4.60;2.73;;;;;;;13.85;88.22;96240.09;3579167;39;20538;-72
2021/08/05 00:04:04;;;;;;;5.00;2.47;;;;;;;13.88;87.71;96226.69;3577401;39;20457;-71
2021/08/05 00:06:32;;;;;;;6.27;2.30;;;;;;;13.87;87.58;96227.66;3580189;39;20465;-73
2021/08/05 00:09:00;;;;;;;4.40;2.50;;;;;;;13.82;87.93;96222.78;3578946;39;20468;-72
2021/08/05 00:11:28;;;;;;;4.77;2.27;;;;;;;13.79;88.19;96228.31;3579132;39;20444;-73
2021/08/05 00:13:56;;;;;;;7.80;3.10;;;;;;;13.78;88.10;96217.91;3576925;39;20663;-71
2021/08/05 00:16:24;;;;;;;4.83;2.30;;;;;;;13.83;87.71;96223.63;3581185;39;20459;-74
2021/08/05 00:18:54;;;;;;;3.77;2.10;;;;;;;13.80;87.97;96211.56;3579462;39;20501;-73
2021/08/05 00:21:22;;;;;;;4.90;2.50;;;;;;;13.78;87.83;96220.53;3578814;39;20454;-74
2021/08/05 00:23:50;;;;;;;2.93;1.80;;;;;;;13.73;88.10;96215.69;3579645;39;20666;-75
2021/08/05 00:26:18;;;;;;;5.23;2.43;;;;;;;13.71;88.11;96212.38;3579757;39;20448;-74
2021/08/05 00:28:46;;;;;;;4.73;2.43;;;;;;;13.72;88.25;96215.81;3573395;39;20455;-73
2021/08/05 00:31:18;;;;;;;8.77;2.50;;;;;;;13.71;88.22;96214.16;3578236;39;20756;-75
2021/08/05 00:33:46;;;;;;;4.63;1.80;;;;;;;13.63;88.79;96218.28;3580035;39;20448;-75
2021/08/05 00:36:15;;;;;;;4.93;2.23;;;;;;;13.54;89.30;96202.47;3580462;39;20485;-75
2021/08/05 00:38:43;;;;;;;2.73;1.80;;;;;;;13.42;89.56;96214.91;3576394;39;20562;-75
2021/08/05 00:41:12;;;;;;;2.77;2.33;;;;;;;13.06;91.08;96209.16;3576455;39;20449;-74
2021/08/05 00:43:40;;;;;;;3.20;2.33;;;;;;;13.01;91.16;96206.09;3581118;39;20548;-73
2021/08/05 00:46:08;;;;;;;3.17;2.10;;;;;;;12.99;91.28;96210.63;3581030;39;20524;-77
2021/08/05 00:48:36;;;;;;;4.87;2.17;;;;;;;13.20;90.30;96203.56;3578441;39;20794;-73
2021/08/05 00:51:04;;;;;;;6.77;2.23;;;;;;;13.30;90.12;96206.25;3580496;39;20660;-72
2021/08/05 00:53:34;;;;;;;6.13;2.10;;;;;;;13.35;89.43;96206.72;3576048;39;20461;-73
2021/08/05 00:56:02;;;;;;;8.40;2.93;;;;;;;13.36;89.47;96212.78;3581755;39;20881;-76
2021/08/05 00:58:30;;;;;;;10.57;2.97;;;;;;;13.38;89.43;96211.69;3578755;39;20706;-75
2021/08/05 01:01:03;;;;;;;5.23;2.23;;;;;;;13.47;89.04;96211.88;3579333;39;20522;-73
2021/08/05 01:03:35;;;;;;;2.83;2.37;;;;;;;13.47;88.77;96199.56;3576090;39;20504;-74
2021/08/05 01:06:15;;;;;;;5.90;2.50;;;;;;;13.47;88.62;96206.63;3577774;39;20865;-74
2021/08/05 01:08:50;;;;;;;6.23;2.40;;;;;;;13.43;88.92;96199.00;3578061;39;20556;-74
2021/08/05 01:11:23;;;;;;;4.90;2.60;;;;;;;13.43;88.99;96200.78;3582981;39;20756;-76
2021/08/05 01:13:55;;;;;;;3.00;2.23;;;;;;;13.45;88.60;96204.13;3579620;39;20965;-74
2021/08/05 01:16:26;;;;;;;5.90;2.77;;;;;;;13.46;88.78;96200.50;3576697;39;20457;-74
2021/08/05 01:19:02;;;;;;;6.03;2.83;;;;;;;13.47;88.52;96204.00;3579322;39;20936;-75
2021/08/05 01:21:45;;;;;;;3.20;2.27;;;;;;;13.38;88.23;96197.72;3580360;39;20872;-73
2021/08/05 01:24:20;;;;;;;3.90;2.37;;;;;;;13.41;88.86;96205.34;3581579;39;21115;-72
2021/08/05 01:27:01;;;;;;;3.00;2.53;;;;;;;13.37;88.78;96201.31;3578915;39;20452;-75
2021/08/05 01:29:32;;;;;;;5.43;2.20;;;;;;;13.31;88.95;96205.31;3576056;39;20813;-74
2021/08/05 01:32:02;;;;;;;3.07;2.57;;;;;;;13.37;88.96;96207.41;3575426;39;20926;-74
2021/08/05 01:34:33;;;;;;;5.20;2.13;;;;;;;13.33;89.06;96210.41;3577369;39;20451;-74
2021/08/05 01:37:02;;;;;;;5.03;2.50;;;;;;;13.28;88.63;96204.72;3580725;39;20588;-74
2021/08/05 01:39:30;;;;;;;7.60;2.60;;;;;;;13.23;88.91;96205.94;3576588;39;20465;-74
2021/08/05 01:42:00;;;;;;;3.30;2.30;;;;;;;13.19;89.23;96203.69;3576849;39;20533;-74
2021/08/05 01:44:28;;;;;;;4.20;2.50;;;;;;;13.17;89.02;96210.88;3579086;39;20460;-74
2021/08/05 01:46:58;;;;;;;5.10;2.43;;;;;;;13.13;89.02;96205.06;3578223;39;20464;-74
2021/08/05 01:49:28;;;;;;;6.10;2.50;;;;;;;13.07;89.44;96200.31;3579446;39;20520;-74
2021/08/05 01:51:56;;;;;;;7.27;2.97;;;;;;;13.09;88.98;96200.19;3578828;39;20511;-73
2021/08/05 01:54:25;;;;;;;4.63;2.20;;;;;;;12.99;89.26;96193.06;3575011;39;20464;-73
2021/08/05 01:56:53;;;;;;;12.00;2.50;;;;;;;12.98;89.09;96190.59;3576586;39;20457;-73
2021/08/05 01:59:22;;;;;;;4.60;2.03;;;;;;;12.93;89.43;96188.34;3577804;39;20457;-72
2021/08/05 02:01:50;;;;;;;3.80;2.30;;;;;;;12.93;89.20;96193.59;3580653;39;20844;-73
2021/08/05 02:04:33;;;;;;;5.70;2.50;;;;;;;12.90;89.11;96187.75;3577229;39;20704;-72
2021/08/05 02:07:08;;;;;;;3.37;2.17;;;;;;;12.87;89.55;96178.34;3575816;39;20502;-73
2021/08/05 02:09:42;;;;;;;4.30;2.37;;;;;;;12.83;89.44;96183.03;3576802;39;20769;-73
2021/08/05 02:12:12;;;;;;;2.30;1.90;;;;;;;12.74;89.24;96178.56;3578355;39;21232;-71
2021/08/05 02:14:41;;;;;;;6.97;2.13;;;;;;;12.75;89.08;96177.59;3578277;39;20771;-72
2021/08/05 02:17:12;;;;;;;13.57;2.67;;;;;;;12.76;89.40;96171.38;3577142;39;20441;-73
2021/08/05 02:19:40;;;;;;;5.50;2.50;;;;;;;12.70;89.53;96176.31;3576651;39;20464;-72
2021/08/05 02:22:09;;;;;;;2.80;2.13;;;;;;;12.62;89.60;96174.31;3575921;39;20484;-71
2021/08/05 02:24:37;;;;;;;5.93;2.50;;;;;;;12.62;89.43;96182.19;3577021;39;20832;-72
2021/08/05 02:27:06;;;;;;;9.40;2.30;;;;;;;12.59;89.65;96180.66;3580898;39;20440;-72
2021/08/05 02:29:34;;;;;;;3.37;2.17;;;;;;;12.53;89.78;96181.19;3577703;39;20767;-73
2021/08/05 02:32:04;;;;;;;4.73;2.40;;;;;;;12.52;89.59;96178.69;3576918;40;20470;-72
2021/08/05 02:34:35;;;;;;;12.33;2.33;;;;;;;12.63;89.45;96173.38;3579258;39;20464;-72
2021/08/05 02:37:04;;;;;;;3.97;1.90;;;;;;;12.63;89.38;96176.00;3577693;39;20441;-72
2021/08/05 02:39:32;;;;;;;3.20;2.40;;;;;;;12.60;89.86;96171.00;3577820;39;20782;-72
2021/08/05 02:42:01;;;;;;;2.57;1.90;;;;;;;12.66;89.43;96170.47;3577152;39;20545;-69
2021/08/05 02:44:30;;;;;;;6.10;2.67;;;;;;;12.67;89.53;96166.91;3576089;39;20925;-72
2021/08/05 02:47:00;;;;;;;12.40;3.83;;;;;;;12.71;89.37;96165.69;3578712;39;20456;-73
2021/08/05 02:49:31;;;;;;;5.60;2.73;;;;;;;12.79;88.99;96168.47;3581061;39;20477;-72
2021/08/05 02:52:00;;;;;;;4.10;2.00;;;;;;;12.80;89.21;96166.69;3578769;39;20727;-72
2021/08/05 02:54:29;;;;;;;4.70;2.47;;;;;;;12.81;89.32;96165.72;3579041;39;20841;-72
2021/08/05 02:56:58;;;;;;;4.17;2.00;;;;;;;12.83;89.85;96162.00;3579162;39;20529;-71
2021/08/05 02:59:27;;;;;;;7.97;2.13;;;;;;;12.89;89.99;96159.84;3579450;39;20553;-71
2021/08/05 03:01:55;;;;;;;9.13;2.50;;;;;;;12.94;89.25;96155.03;3584026;39;20535;-71
2021/08/05 03:04:23;;;;;;;5.60;2.33;;;;;;;12.88;89.73;96152.91;3581373;39;20476;-72
2021/08/05 03:06:53;;;;;;;2.80;2.37;;;;;;;12.88;89.54;96156.38;3580444;39;20554;-73
2021/08/05 03:09:21;;;;;;;3.13;2.20;;;;;;;12.90;89.81;96156.22;3579894;39;21126;-72
2021/08/05 03:11:48;;;;;;;4.10;2.03;;;;;;;12.89;90.25;96159.84;3577090;40;20436;-71
2021/08/05 03:14:17;;;;;;;3.30;1.90;;;;;;;12.93;90.06;96145.47;3579140;39;20555;-71
2021/08/05 03:16:45;;;;;;;5.27;2.73;;;;;;;13.01;89.33;96156.16;3579766;39;20444;-72
2021/08/05 03:19:13;;;;;;;4.57;2.77;;;;;;;12.92;89.98;96155.16;3579643;39;20686;-72
2021/08/05 03:21:41;;;;;;;3.40;2.47;;;;;;;12.97;89.33;96149.50;3576369;40;20553;-72
2021/08/05 03:24:10;;;;;;;3.10;2.20;;;;;;;13.03;89.63;96151.59;3579406;39;20519;-71
2021/08/05 03:26:38;;;;;;;5.73;2.57;;;;;;;12.86;90.52;96146.00;3581110;39;20564;-71
2021/08/05 03:29:06;;;;;;;3.30;2.00;;;;;;;12.94;89.58;96147.16;3579573;39;20487;-72
2021/08/05 03:31:34;;;;;;;3.57;2.30;;;;;;;12.98;89.96;96149.38;3580101;39;20425;-71
2021/08/05 03:34:02;;;;;;;4.73;2.73;;;;;;;13.01;89.63;96148.25;3577073;39;20514;-72
2021/08/05 03:36:30;;;;;;;6.67;2.50;;;;;;;12.97;89.74;96137.16;3579419;39;20830;-72
2021/08/05 03:38:58;;;;;;;3.33;2.17;;;;;;;13.01;89.31;96153.53;3578402;39;20456;-72
2021/08/05 03:41:28;;;;;;;8.43;3.30;;;;;;;13.06;89.60;96146.91;3578731;39;20798;-72
2021/08/05 03:43:56;;;;;;;5.60;2.67;;;;;;;13.03;89.49;96155.06;3577630;39;20864;-72
2021/08/05 03:46:23;;;;;;;4.10;2.63;;;;;;;13.09;88.57;96150.22;3577776;40;20506;-71
2021/08/05 03:48:52;;;;;;;4.33;2.90;;;;;;;13.10;89.10;96152.75;3571318;39;21125;-72
2021/08/05 03:51:20;;;;;;;5.97;2.87;;;;;;;13.03;89.82;96151.59;3583083;39;20445;-71
2021/08/05 03:53:48;;;;;;;5.37;1.80;;;;;;;13.01;89.51;96156.16;3581174;39;20857;-72
2021/08/05 03:56:16;;;;;;;5.83;3.00;;;;;;;12.95;89.66;96154.88;3580932;39;20876;-72
2021/08/05 03:58:45;;;;;;;7.03;3.40;;;;;;;12.93;90.05;96146.28;3577781;39;20457;-72
2021/08/05 04:01:13;;;;;;;13.17;3.10;;;;;;;13.02;89.89;96156.03;3578588;39;20941;-72
2021/08/05 04:03:41;;;;;;;4.70;2.60;;;;;;;12.93;90.39;96153.34;3582038;39;20483;-72
2021/08/05 04:06:10;;;;;;;5.90;2.90;;;;;;;12.97;90.28;96136.34;3579092;39;20434;-72
2021/08/05 04:08:38;;;;;;;7.70;3.10;;;;;;;13.06;89.22;96151.34;3580500;39;20444;-70
2021/08/05 04:11:07;;;;;;;4.97;2.80;;;;;;;13.11;88.60;96143.03;3578305;39;20545;-70
2021/08/05 04:13:35;;;;;;;4.30;2.57;;;;;;;13.02;89.60;96144.69;3580831;39;20843;-70
2021/08/05 04:16:04;;;;;;;6.17;3.03;;;;;;;13.05;89.39;96147.03;3583404;39;20853;-71
2021/08/05 04:18:33;;;;;;;4.20;2.80;;;;;;;13.11;89.41;96145.69;3579032;39;20448;-73
2021/08/05 04:21:00;;;;;;;4.37;3.10;;;;;;;13.14;89.01;96142.78;3578268;39;20773;-72
2021/08/05 04:23:28;;;;;;;4.83;2.83;;;;;;;13.19;89.00;96140.59;3578935;39;20475;-71
2021/08/05 04:25:56;;;;;;;6.17;2.47;;;;;;;13.25;88.61;96145.34;3580841;39;20836;-71
2021/08/05 04:28:24;;;;;;;7.20;2.90;;;;;;;13.21;88.89;96150.03;3580626;39;20441;-72
2021/08/05 04:30:53;;;;;;;4.50;2.60;;;;;;;13.25;88.62;96154.06;3577406;39;20467;-72
2021/08/05 04:33:23;;;;;;;5.20;2.87;;;;;;;13.28;88.51;96155.56;3578723;39;20483;-71
2021/08/05 04:35:50;;;;;;;7.97;3.20;;;;;;;13.30;88.02;96152.84;3578400;39;20850;-75
2021/08/05 04:38:18;;;;;;;7.80;4.20;;;;;;;13.39;87.67;96152.88;3579304;39;20486;-72
2021/08/05 04:40:46;;;;;;;4.57;3.00;;;;;;;13.45;87.28;96162.88;3579594;39;20463;-71
2021/08/05 04:43:18;;;;;;;6.13;2.87;;;;;;;13.36;88.08;96155.75;3582449;39;20475;-72
2021/08/05 04:45:46;;;;;;;9.57;2.47;;;;;;;13.47;88.30;96154.03;3580810;39;20453;-72
2021/08/05 04:48:14;;;;;;;6.37;3.17;;;;;;;13.42;88.30;96144.72;3577534;39;20532;-73
2021/08/05 04:50:44;;;;;;;9.53;3.30;;;;;;;13.43;87.60;96154.28;3576869;39;20460;-71
2021/08/05 04:53:16;;;;;;;10.40;3.17;;;;;;;13.58;86.82;96157.38;3580036;39;20457;-72
2021/08/05 04:55:44;;;;;;;4.90;2.83;;;;;;;13.67;86.63;96153.09;3578386;39;20711;-72
2021/08/05 04:58:12;;;;;;;7.17;3.23;;;;;;;13.67;87.00;96154.91;3582622;39;20736;-72
2021/08/05 05:00:42;;;;;;;5.90;2.93;;;;;;;13.52;88.67;96149.16;3581655;39;20476;-71
2021/08/05 05:03:11;;;;;;;4.37;2.57;;;;;;;13.54;88.35;96149.88;3577118;39;20794;-72
2021/08/05 05:05:39;;;;;;;6.13;3.00;;;;;;;13.66;87.10;96154.03;3576260;39;20846;-71
2021/08/05 05:08:20;;;;;;;5.00;3.20;;;;;;;13.75;86.74;96142.72;3578295;39;20837;-74
2021/08/05 05:10:51;;;;;;;16.37;3.73;;;;;;;13.78;86.39;96147.72;3580522;39;20456;-73
2021/08/05 05:13:20;;;;;;;3.70;2.50;;;;;;;13.73;86.87;96144.66;3578615;39;20515;-73
2021/08/05 05:15:48;;;;;;;6.40;2.60;;;;;;;13.82;86.73;96156.16;3578463;39;20942;-73
2021/08/05 05:18:19;;;;;;;3.60;2.30;;;;;;;13.82;86.78;96151.72;3579591;39;20550;-72
2021/08/05 05:20:47;;;;;;;3.23;2.80;;;;;;;13.83;86.85;96142.03;3580265;39;20465;-70
2021/08/05 05:23:15;;;;;;;3.67;2.70;;;;;;;13.93;86.07;96142.88;3576011;39;20698;-73
2021/08/05 05:25:45;;;;;;;15.77;2.50;;;;;;;14.09;85.66;96149.38;3577733;39;20708;-72
2021/08/05 05:28:14;;;;;;;3.60;2.47;;;;;;;14.33;84.11;96148.97;3578405;39;20563;-71
2021/08/05 05:30:42;;;;;;;6.07;3.00;;;;;;;14.29;83.47;96147.59;3580339;39;20468;-73
2021/08/05 05:33:10;;;;;;;8.50;2.30;;;;;;;14.48;82.29;96144.09;3577159;39;20469;-72
2021/08/05 05:35:39;;;;;;;9.97;2.30;;;;;;;14.46;82.58;96151.31;3575912;39;20551;-71
2021/08/05 05:38:08;;;;;;;7.33;2.67;;;;;;;14.47;82.55;96142.47;3578685;39;20451;-72
2021/08/05 05:40:37;;;;;;;4.10;2.27;;;;;;;14.44;83.11;96154.94;3574820;39;20749;-74
2021/08/05 05:43:08;;;;;;;3.43;2.00;;;;;;;14.80;81.21;96149.91;3580191;39;20864;-72
2021/08/05 05:45:37;;;;;;;9.13;2.80;;;;;;;14.62;82.45;96143.69;3578241;39;20495;-72
2021/08/05 05:48:06;;;;;;;3.13;2.60;;;;;;;14.78;82.33;96143.97;3579941;39;20453;-71
2021/08/05 05:50:35;;;;;;;5.73;2.60;;;;;;;15.05;81.34;96144.97;3577709;39;20487;-71
2021/08/05 05:53:04;;;;;;;6.93;2.97;;;;;;;15.52;79.27;96154.63;3578840;39;21069;-71
2021/08/05 05:55:32;;;;;;;4.27;2.60;;;;;;;15.53;79.62;96146.56;3574883;39;20475;-70
2021/08/05 05:58:01;;;;;;;4.57;3.00;;;;;;;16.00;78.27;96133.25;3577563;39;20538;-70
2021/08/05 06:00:30;;;;;;;5.53;2.37;;;;;;;16.18;75.72;96132.41;3576425;39;20909;-73
2021/08/05 06:03:00;;;;;;;3.73;2.40;;;;;;;16.08;75.95;96135.13;3574758;39;20762;-71
2021/08/05 06:05:28;;;;;;;18.13;3.40;;;;;;;16.00;76.20;96137.72;3578453;39;20594;-71
2021/08/05 06:07:56;;;;;;;4.73;2.17;;;;;;;15.97;76.15;96138.81;3579567;39;20794;-71
2021/08/05 06:10:24;;;;;;;4.77;1.80;;;;;;;15.82;76.27;96130.59;3580071;39;20915;-71
2021/08/05 06:12:52;;;;;;;7.63;2.33;;;;;;;16.10;75.32;96129.72;3579107;39;20484;-70
2021/08/05 06:15:21;;;;;;;4.30;2.70;;;;;;;16.10;73.81;96121.78;3577605;39;20471;-71
2021/08/05 06:17:50;;;;;;;2.90;2.17;;;;;;;15.96;75.68;96117.88;3581889;39;20510;-72
2021/08/05 06:20:20;;;;;;;3.37;2.07;;;;;;;16.31;74.17;96127.59;3568206;40;20818;-72
2021/08/05 06:22:49;;;;;;;2.13;1.70;;;;;;;16.58;72.62;96125.78;3579831;39;20676;-71
2021/08/05 06:25:18;;;;;;;4.97;2.70;;;;;;;16.63;71.37;96126.16;3576932;39;20546;-71
2021/08/05 06:27:47;;;;;;;14.30;8.07;;;;;;;16.93;70.30;96130.19;3576726;39;20832;-72
2021/08/05 06:30:17;;;;;;;7.80;2.37;;;;;;;17.24;70.14;96128.88;3579760;39;20487;-71
2021/08/05 06:32:45;;;;;;;10.03;2.37;;;;;;;17.16;70.65;96135.78;3579210;39;20460;-72
2021/08/05 06:35:14;;;;;;;5.17;2.50;;;;;;;17.34;68.63;96126.94;3580080;39;20811;-73
2021/08/05 06:37:42;;;;;;;6.40;2.30;;;;;;;17.10;71.13;96138.22;3578480;39;20448;-71
2021/08/05 06:40:12;;;;;;;4.40;2.10;;;;;;;17.05;70.19;96141.31;3577605;39;20461;-71
2021/08/05 06:42:40;;;;;;;3.47;2.67;;;;;;;17.38;69.44;96141.50;3581741;39;20475;-71
2021/08/05 06:45:11;;;;;;;4.13;2.00;;;;;;;17.50;69.16;96136.75;3583933;39;20471;-73
2021/08/05 06:47:41;;;;;;;6.50;2.17;;;;;;;17.46;69.44;96133.59;3581843;39;20460;-72
2021/08/05 06:50:11;;;;;;;4.97;2.20;;;;;;;17.44;69.93;96151.44;3579507;39;20892;-70
2021/08/05 06:52:40;;;;;;;20.83;9.93;;;;;;;17.75;68.10;96137.66;3581945;39;20921;-72
2021/08/05 06:55:09;;;;;;;3.73;3.03;;;;;;;17.70;68.47;96142.59;3584088;39;20946;-73
2021/08/05 06:57:37;;;;;;;8.43;2.20;;;;;;;17.52;68.97;96143.56;3583147;39;20503;-70
2021/08/05 07:00:06;;;;;;;3.80;2.17;;;;;;;17.58;69.94;96145.56;3582848;39;20904;-70
2021/08/05 07:02:34;;;;;;;4.67;2.20;;;;;;;17.81;67.23;96142.31;3582697;39;20451;-72
2021/08/05 07:05:04;;;;;;;13.73;2.30;;;;;;;17.80;68.69;96143.31;3584997;39;20771;-72
2021/08/05 07:07:32;;;;;;;11.30;2.23;;;;;;;17.36;69.45;96140.81;3585351;39;20432;-74
2021/08/05 07:10:03;;;;;;;4.90;2.77;;;;;;;18.13;67.53;96143.41;3581789;39;20963;-72
2021/08/05 07:12:31;;;;;;;2.23;2.00;;;;;;;18.20;66.40;96144.41;3581915;39;20461;-75
2021/08/05 07:15:00;;;;;;;5.97;2.00;;;;;;;18.40;66.53;96144.09;3578514;39;20460;-71
2021/08/05 07:17:28;;;;;;;17.83;2.57;;;;;;;17.94;67.70;96142.72;3582074;39;20481;-71
2021/08/05 07:19:56;;;;;;;2.97;1.87;;;;;;;18.25;67.77;96142.09;3580829;39;21181;-73
2021/08/05 07:22:23;;;;;;;4.07;2.20;;;;;;;18.45;65.97;96133.84;3580124;39;20473;-75
2021/08/05 07:24:52;;;;;;;5.80;2.00;;;;;;;18.63;65.27;96134.47;3580927;39;20486;-70
2021/08/05 07:27:21;;;;;;;4.73;2.53;;;;;;;18.56;65.68;96133.47;3578952;39;20748;-70
2021/08/05 07:29:49;;;;;;;3.23;2.03;;;;;;;18.81;64.97;96123.72;3582878;39;20767;-71
2021/08/05 07:32:17;;;;;;;3.30;2.30;;;;;;;19.07;64.49;96120.84;3583550;39;20492;-72
2021/08/05 07:34:45;;;;;;;5.07;2.20;;;;;;;19.82;62.50;96119.56;3579651;39;20842;-70
2021/08/05 07:37:13;;;;;;;6.83;2.50;;;;;;;19.54;63.24;96120.03;3582029;39;20461;-71
2021/08/05 07:39:41;;;;;;;4.70;2.63;;;;;;;19.05;64.28;96114.03;3580233;39;20819;-71
2021/08/05 07:42:09;;;;;;;2.83;2.20;;;;;;;18.96;65.00;96118.56;3579549;39;20550;-71
2021/08/05 07:44:38;;;;;;;4.53;2.83;;;;;;;18.47;66.98;96122.06;3580821;39;21260;-72
2021/08/05 07:47:06;;;;;;;3.10;2.20;;;;;;;17.95;68.19;96131.13;3581663;39;20651;-74
2021/08/05 07:49:34;;;;;;;3.00;2.20;;;;;;;17.60;69.42;96124.19;3577724;39;20445;-72
2021/08/05 07:52:02;;;;;;;4.13;2.57;;;;;;;17.64;68.80;96116.78;3579933;39;20461;-70
2021/08/05 07:54:30;;;;;;;4.23;2.30;;;;;;;17.76;69.34;96123.44;3578905;39;20838;-70
2021/08/05 07:56:58;;;;;;;3.37;2.17;;;;;;;17.72;69.46;96125.59;3581600;39;20465;-70
2021/08/05 07:59:26;;;;;;;2.60;2.00;;;;;;;17.82;69.42;96127.25;3570128;40;20881;-71
2021/08/05 08:01:55;;;;;;;6.43;2.43;;;;;;;17.68;69.27;96126.91;3581030;39;20437;-71
2021/08/05 08:04:24;;;;;;;4.33;2.90;;;;;;;17.80;68.80;96119.47;3581033;39;20581;-71
2021/08/05 08:06:52;;;;;;;8.00;2.10;;;;;;;17.98;69.19;96119.38;3580701;39;20476;-72
2021/08/05 08:09:20;;;;;;;5.20;2.53;;;;;;;17.94;68.68;96118.88;3579937;39;20554;-71
2021/08/05 08:11:47;;;;;;;7.27;2.40;;;;;;;17.85;69.18;96119.84;3579743;40;20602;-71
2021/08/05 08:14:15;;;;;;;5.67;2.70;;;;;;;18.26;68.71;96113.78;3585762;39;20819;-73
2021/08/05 08:16:43;;;;;;;2.73;2.10;;;;;;;18.23;66.77;96114.94;3580210;39;20444;-70
2021/08/05 08:19:13;;;;;;;3.00;2.10;;;;;;;17.98;67.90;96109.59;3581817;39;20477;-70
2021/08/05 08:21:41;;;;;;;4.60;2.20;;;;;;;18.46;66.80;96107.13;3578909;39;20844;-72
2021/08/05 08:24:10;;;;;;;3.30;2.50;;;;;;;18.77;66.99;96098.50;3583748;39;20787;-71
2021/08/05 08:26:38;;;;;;;3.67;2.60;;;;;;;18.72;65.82;96106.13;3582615;39;21011;-71
2021/08/05 08:29:07;;;;;;;2.60;1.80;;;;;;;18.52;66.51;96100.34;3580101;39;20464;-71
2021/08/05 08:31:35;;;;;;;6.37;2.37;;;;;;;18.49;66.26;96098.03;3580734;39;20468;-71
2021/08/05 08:34:04;;;;;;;3.73;2.40;;;;;;;18.82;64.90;96104.16;3580693;39;20892;-71
2021/08/05 08:36:33;;;;;;;4.23;2.20;;;;;;;18.89;63.99;96107.78;3583170;39;20445;-71
2021/08/05 08:39:02;;;;;;;3.57;2.03;;;;;;;19.04;63.43;96099.13;3580248;39;20976;-71
2021/08/05 08:41:33;;;;;;;2.60;1.90;;;;;;;19.88;60.78;96092.31;3580128;39;20833;-72
2021/08/05 08:44:01;;;;;;;3.37;1.90;;;;;;;19.93;61.48;96089.97;3579753;39;20668;-71
2021/08/05 08:46:33;;;;;;;4.90;2.17;;;;;;;20.39;60.59;96091.78;3582392;39;20759;-70
2021/08/05 08:49:03;;;;;;;3.10;1.97;;;;;;;20.67;56.95;96083.25;3578808;39;20479;-71
2021/08/05 08:51:33;;;;;;;5.27;2.03;;;;;;;20.58;54.45;96085.13;3580971;39;20682;-75
2021/08/05 08:54:05;;;;;;;3.47;1.77;;;;;;;20.47;55.76;96080.25;3576955;39;20819;-70
2021/08/05 08:56:33;;;;;;;3.00;1.83;;;;;;;19.40;59.25;96093.34;3580947;39;20554;-70
2021/08/05 08:59:01;;;;;;;2.70;1.53;;;;;;;19.98;58.14;96089.41;3581412;39;20855;-70
2021/08/05 09:01:31;;;;;;;2.20;1.50;;;;;;;20.44;55.29;96080.59;3582336;39;20449;-70
2021/08/05 09:03:59;;;;;;;2.03;1.53;;;;;;;21.45;52.63;96087.22;3578764;39;20517;-71
2021/08/05 09:06:27;;;;;;;3.00;1.73;;;;;;;21.28;50.75;96085.75;3579365;39;20789;-71
2021/08/05 09:08:56;;;;;;;7.03;1.70;;;;;;;20.11;55.07;96078.19;3580032;39;20510;-72
2021/08/05 09:11:24;;;;;;;5.57;1.43;;;;;;;19.89;57.01;96083.31;3578587;39;20453;-73
2021/08/05 09:13:52;;;;;;;4.80;1.80;;;;;;;20.64;56.54;96087.09;3578833;39;21122;-71
2021/08/05 09:16:21;;;;;;;5.50;1.57;;;;;;;20.49;55.39;96088.84;3581106;39;20524;-70
2021/08/05 09:18:50;;;;;;;2.43;1.63;;;;;;;20.72;56.06;96078.22;3578850;39;20447;-71
2021/08/05 09:21:21;;;;;;;2.00;1.70;;;;;;;20.80;55.19;96080.78;3579533;39;20949;-70
2021/08/05 09:24:01;;;;;;;3.60;1.90;;;;;;;21.17;53.87;96075.53;3580062;39;20448;-70
2021/08/05 09:26:32;;;;;;;2.03;1.63;;;;;;;20.22;57.32;96077.78;3576286;39;20912;-70
2021/08/05 09:29:03;;;;;;;1.83;1.50;;;;;;;20.47;56.07;96083.72;3576635;39;20465;-70
2021/08/05 09:31:32;;;;;;;3.60;1.73;;;;;;;21.38;53.11;96080.13;3580689;39;20438;-70
2021/08/05 09:34:02;;;;;;;6.37;2.03;;;;;;;21.52;53.69;96071.31;3577685;39;20542;-70
2021/08/05 09:36:29;;;;;;;1.67;1.27;;;;;;;21.11;54.10;96067.31;3580865;39;20522;-70
2021/08/05 09:38:59;;;;;;;2.17;1.20;;;;;;;21.07;55.01;96068.69;3578316;39;20478;-71
2021/08/05 09:41:27;;;;;;;3.00;2.07;;;;;;;21.34;53.06;96071.69;3580081;39;20458;-71
2021/08/05 09:44:03;;;;;;;2.73;1.90;;;;;;;21.57;51.97;96076.09;3577204;39;20822;-71
2021/08/05 09:46:33;;;;;;;3.10;1.33;;;;;;;21.25;51.10;96059.50;3576436;39;20745;-71
2021/08/05 09:49:01;;;;;;;2.80;1.30;;;;;;;20.87;53.93;96064.91;3582845;39;20896;-71
2021/08/05 09:51:29;;;;;;;7.97;2.13;;;;;;;21.31;52.19;96061.41;3578265;39;21204;-70
2021/08/05 09:54:03;;;;;;;2.47;1.37;;;;;;;21.14;50.57;96066.91;3579111;39;20772;-74
2021/08/05 09:56:36;;;;;;;3.90;1.47;;;;;;;20.97;51.69;96060.13;3578510;39;20923;-71
2021/08/05 09:59:06;;;;;;;1.87;1.50;;;;;;;21.82;48.63;96058.75;3579451;39;20468;-72
2021/08/05 10:01:34;;;;;;;2.70;1.60;;;;;;;21.79;48.40;96060.97;3578297;39;20495;-72
2021/08/05 10:04:28;;;;;;;1.77;1.40;;;;;;;20.88;50.59;96058.59;3579919;39;20693;-71
2021/08/05 10:07:03;;;;;;;2.27;1.10;;;;;;;20.72;51.42;96060.41;3581397;39;20479;-71
2021/08/05 10:09:33;;;;;;;1.83;1.20;;;;;;;20.65;51.49;96059.47;3573414;39;20550;-70
2021/08/05 10:12:17;;;;;;;1.50;1.27;;;;;;;20.88;52.75;96055.94;3580673;39;20770;-71
2021/08/05 10:14:47;;;;;;;1.83;1.53;;;;;;;20.39;52.75;96067.03;3579415;39;20814;-71
2021/08/05 10:17:16;;;;;;;2.90;1.40;;;;;;;20.30;53.89;96052.94;3580342;39;20776;-71
2021/08/05 10:19:46;;;;;;;2.10;1.43;;;;;;;20.15;54.00;96060.91;3579084;39;20765;-70
2021/08/05 10:22:15;;;;;;;1.63;1.00;;;;;;;20.25;53.81;96053.50;3581659;39;20752;-72
2021/08/05 10:24:49;;;;;;;4.13;1.37;;;;;;;20.54;54.38;96049.25;3581595;39;20794;-70
2021/08/05 10:27:18;;;;;;;4.63;2.00;;;;;;;20.82;53.12;96048.69;3582117;39;20578;-70
2021/08/05 10:29:48;;;;;;;2.00;1.20;;;;;;;20.88;53.91;96050.59;3579729;39;20488;-70
2021/08/05 10:32:17;;;;;;;4.73;1.40;;;;;;;21.67;52.16;96044.66;3579888;39;20449;-70
2021/08/05 10:34:45;;;;;;;4.03;1.50;;;;;;;21.62;51.18;96042.56;3581108;39;20916;-69
2021/08/05 10:37:14;;;;;;;2.20;1.40;;;;;;;21.86;50.70;96038.72;3581301;39;20526;-68
2021/08/05 10:39:45;;;;;;;3.77;1.93;;;;;;;22.55;49.04;96031.94;3581827;39;20465;-70
2021/08/05 10:42:16;;;;;;;1.20;1.10;;;;;;;22.48;48.88;96034.56;3581649;39;20449;-71
2021/08/05 10:44:46;;;;;;;2.40;0.90;;;;;;;22.11;49.70;96033.81;3578535;39;20918;-71
2021/08/05 10:47:19;;;;;;;1.93;1.30;;;;;;;22.79;48.51;96017.31;3581696;39;20495;-70
2021/08/05 10:49:48;;;;;;;1.53;1.10;;;;;;;23.68;43.82;96015.69;3579272;39;20465;-71
2021/08/05 10:52:42;;;;;;;1.40;1.10;;;;;;;24.20;43.53;96014.13;3581510;39;20551;-71
2021/08/05 10:55:34;;;;;;;3.37;0.93;;;;;;;22.97;45.99;96010.63;3569087;39;20500;-72
2021/08/05 10:58:20;;;;;;;2.90;1.30;;;;;;;23.64;44.69;96004.59;3577202;39;20877;-73
2021/08/05 11:00:55;;;;;;;2.23;1.10;;;;;;;;;;3578514;39;20473;-71
2021/08/05 11:03:44;;;;;;;1.80;0.90;;;;;;;24.60;44.38;95998.13;3578158;39;20825;-71
2021/08/05 11:06:33;;;;;;;1.23;0.80;;;;;;;23.02;45.21;96001.06;3578381;39;20480;-70
2021/08/05 11:09:28;;;;;;;1.50;1.10;;;;;;;23.65;45.71;95997.38;3579884;39;20573;-70
2021/08/05 11:12:17;;;;;;;2.13;1.00;;;;;;;23.99;42.74;95998.28;3580024;39;20716;-71
2021/08/05 11:14:45;;;;;;;1.67;1.10;;;;;;;23.49;44.65;95995.91;3579304;39;20693;-71
2021/08/05 11:17:13;;;;;;;3.40;1.00;;;;;;;23.08;47.09;96000.25;3583992;39;21052;-70
2021/08/05 11:19:42;;;;;;;2.43;1.93;;;;;;;22.75;45.88;95994.72;3579189;39;20445;-71
2021/08/05 11:22:51;;;;;;;1.30;1.00;;;;;;;22.16;49.67;95992.44;3582897;39;20461;-71
2021/08/05 11:25:20;;;;;;;1.60;1.07;;;;;;;22.73;48.75;95980.75;3576598;39;20916;-72
2021/08/05 11:28:24;;;;;;;1.83;1.30;;;;;;;22.63;47.99;95986.44;3587497;39;20818;-72
2021/08/05 11:30:55;;;;;;;1.40;1.00;;;;;;;23.88;44.30;95987.16;3578061;39;20868;-73
2021/08/05 11:33:49;;;;;;;2.00;1.07;;;;;;;24.01;44.42;95975.69;3578508;39;20453;-72
2021/08/05 11:36:42;;;;;;;2.50;0.90;;;;;;;24.14;45.22;95979.38;3578847;39;20968;-73
2021/08/05 11:39:14;;;;;;;4.00;1.20;;;;;;;23.24;45.98;95971.56;3577411;39;20809;-73
2021/08/05 11:41:54;;;;;;;1.00;0.80;;;;;;;24.18;45.58;95978.75;3580503;39;20441;-73
2021/08/05 11:44:27;;;;;;;1.30;1.00;;;;;;;;;;3582356;39;20492;-72
2021/08/05 11:47:16;;;;;;;2.33;1.10;;;;;;;23.95;51.79;95983.69;3579826;39;20471;-74
2021/08/05 11:49:46;;;;;;;7.37;4.17;;;;;;;23.97;53.33;95978.94;3579971;39;20452;-73